Time;durP1;ratioP1;P1;durP2;ratioP2;P2;SDS_P1;SDS_P2;PMS_P1;PMS_P2;Temp;Humidity;BMP_temperature;BMP_pressure;BME280_temperature;BME280_humidity;BME280_pressure;Samples;Min_cycle;Max_cycle;Signal;HPM_P1;HPM_P2
2023/10/09 00:00:55;;;;;;;3.03;1.80;;;7.70;99.90;;;;;;8257278;28;20211;-65
2023/10/09 00:04:56;;;;;;;4.60;2.20;;;7.70;99.90;;;;;;8269979;28;20195;-66
2023/10/09 00:08:58;;;;;;;9.43;4.07;;;7.70;99.90;;;;;;8253183;28;20677;-65
2023/10/09 00:12:59;;;;;;;11.37;5.27;;;7.70;99.90;;;;;;8257067;28;20218;-64
2023/10/09 00:17:18;;;;;;;9.13;4.47;;;7.80;1.00;;;;;;8262763;28;20222;-65
2023/10/09 00:21:23;;;;;;;5.30;2.30;;;7.80;1.00;;;;;;8273904;28;20180;-68
2023/10/09 00:25:30;;;;;;;3.03;1.87;;;7.80;1.00;;;;;;8277609;28;20203;-67
2023/10/09 00:29:34;;;;;;;2.83;1.40;;;7.80;1.00;;;;;;8276031;28;20194;-69
2023/10/09 00:33:35;;;;;;;2.20;1.70;;;7.90;1.00;;;;;;8263538;28;20213;-69
2023/10/09 00:37:36;;;;;;;2.60;1.50;;;7.90;1.00;;;;;;8263088;28;20219;-67
2023/10/09 00:41:41;;;;;;;3.60;1.93;;;7.80;1.00;;;;;;8281985;28;20179;-68
2023/10/09 00:45:44;;;;;;;2.50;1.63;;;7.80;1.00;;;;;;8274899;28;20552;-68
2023/10/09 00:49:45;;;;;;;4.73;2.13;;;7.80;1.00;;;;;;8277890;28;20186;-69
2023/10/09 00:53:52;;;;;;;2.50;1.53;;;7.80;1.00;;;;;;8266480;28;20183;-69
2023/10/09 00:58:05;;;;;;;2.83;1.87;;;7.90;32.10;;;;;;8261904;28;20187;-69
2023/10/09 01:02:06;;;;;;;2.13;1.70;;;7.80;73.10;;;;;;8277082;28;20265;-68
2023/10/09 01:06:16;;;;;;;4.47;2.10;;;7.90;85.70;;;;;;8275971;28;20558;-68
2023/10/09 01:10:18;;;;;;;3.47;1.83;;;7.90;71.80;;;;;;8276381;28;20187;-69
2023/10/09 01:14:21;;;;;;;3.50;1.63;;;7.90;16.10;;;;;;8256956;28;20211;-68
2023/10/09 01:18:35;;;;;;;3.20;1.93;;;7.90;1.00;;;;;;8269872;28;20220;-69
2023/10/09 01:22:36;;;;;;;3.63;1.63;;;7.90;1.00;;;;;;8255688;28;20184;-71
2023/10/09 01:26:49;;;;;;;2.77;1.60;;;8.00;1.00;;;;;;8278811;28;20226;-70
2023/10/09 01:30:51;;;;;;;4.83;1.57;;;8.00;1.00;;;;;;8262915;28;20196;-68
2023/10/09 01:34:54;;;;;;;3.30;1.80;;;8.00;40.00;;;;;;8275311;28;20230;-70
2023/10/09 01:38:54;;;;;;;2.80;1.60;;;8.00;99.90;;;;;;8281277;28;20179;-69
2023/10/09 01:42:56;;;;;;;3.47;1.60;;;8.00;99.90;;;;;;8262227;28;20194;-68
2023/10/09 01:46:58;;;;;;;2.90;1.90;;;8.00;99.90;;;;;;8260994;28;20277;-70
2023/10/09 01:51:00;;;;;;;4.17;2.10;;;8.00;99.90;;;;;;8260290;28;20191;-68
2023/10/09 01:55:27;;;;;;;3.40;2.13;;;8.00;99.90;;;;;;8265067;28;20237;-68
2023/10/09 01:59:21;;;;;;;2.80;1.77;;;8.00;99.90;;;;;;8274966;28;20253;-67
2023/10/09 02:03:23;;;;;;;3.43;1.93;;;8.00;99.90;;;;;;8250714;28;20184;-70
2023/10/09 02:07:29;;;;;;;4.93;2.67;;;8.00;99.90;;;;;;8256211;28;20202;-68
2023/10/09 02:11:36;;;;;;;3.07;2.20;;;8.00;1.00;;;;;;8277015;28;20183;-69
2023/10/09 02:19:48;;;;;;;3.07;1.97;;;8.00;92.80;;;;;;8276368;28;20192;-70
2023/10/09 02:23:51;;;;;;;3.50;1.87;;;7.90;99.90;;;;;;8255994;28;20580;-69
2023/10/09 02:27:53;;;;;;;3.93;2.00;;;7.90;1.00;;;;;;8258476;28;20199;-68
2023/10/09 02:32:00;;;;;;;2.67;1.57;;;7.90;1.00;;;;;;8278006;28;20467;-70
2023/10/09 02:36:05;;;;;;;4.37;2.20;;;7.90;1.00;;;;;;8283135;28;20241;-69
2023/10/09 02:40:08;;;;;;;2.33;1.50;;;7.90;1.00;;;;;;8269761;28;20472;-68
2023/10/09 02:44:12;;;;;;;3.33;2.10;;;7.90;99.90;;;;;;8270559;28;20168;-69
2023/10/09 02:48:13;;;;;;;2.80;1.63;;;8.00;99.90;;;;;;8264885;28;20251;-69
2023/10/09 02:52:18;;;;;;;3.93;2.20;;;8.00;99.90;;;;;;8261130;28;20226;-62
2023/10/09 02:56:24;;;;;;;2.93;1.80;;;8.00;99.90;;;;;;8266090;28;20286;-62
2023/10/09 03:00:29;;;;;;;2.73;1.87;;;8.00;1.00;;;;;;8253312;28;20210;-62
2023/10/09 03:04:30;;;;;;;4.37;2.33;;;8.00;99.90;;;;;;8279641;28;20187;-63
2023/10/09 03:08:30;;;;;;;4.10;2.23;;;7.90;1.00;;;;;;8278803;28;20225;-61
2023/10/09 03:12:32;;;;;;;2.77;1.80;;;7.90;99.90;;;;;;8276944;28;20187;-63
2023/10/09 03:16:33;;;;;;;4.67;2.60;;;7.90;99.90;;;;;;8279119;28;20234;-63
2023/10/09 03:20:34;;;;;;;4.83;2.40;;;7.90;1.00;;;;;;8276725;28;20187;-65
2023/10/09 03:24:35;;;;;;;4.33;2.57;;;7.90;1.00;;;;;;8273983;28;20337;-64
2023/10/09 03:28:36;;;;;;;3.47;2.30;;;7.90;1.00;;;;;;8277433;28;20183;-64
2023/10/09 03:32:36;;;;;;;3.63;2.43;;;7.80;99.90;;;;;;8263917;28;20269;-64
2023/10/09 03:36:38;;;;;;;4.57;2.40;;;7.80;99.90;;;;;;8259426;28;20206;-63
2023/10/09 03:40:43;;;;;;;3.40;2.27;;;7.80;99.90;;;;;;8278011;28;20179;-64
2023/10/09 03:44:48;;;;;;;7.40;3.13;;;7.70;99.90;;;;;;8277337;28;20190;-63
2023/10/09 03:48:49;;;;;;;4.47;2.30;;;7.70;99.90;;;;;;8260300;28;20186;-63
2023/10/09 03:52:50;;;;;;;4.07;2.17;;;7.70;99.90;;;;;;8261480;28;20199;-64
2023/10/09 03:56:51;;;;;;;3.57;2.10;;;7.70;99.90;;;;;;8261242;28;20218;-62
2023/10/09 04:00:52;;;;;;;2.53;1.83;;;7.70;99.90;;;;;;8281250;28;20203;-63
2023/10/09 04:04:53;;;;;;;3.17;2.17;;;7.70;99.90;;;;;;8282243;28;20216;-63
2023/10/09 04:08:54;;;;;;;4.10;2.30;;;7.70;99.90;;;;;;8263168;28;20278;-62
2023/10/09 04:12:58;;;;;;;3.07;1.80;;;7.70;99.90;;;;;;8291302;28;20261;-69
2023/10/09 04:17:33;;;;;;;2.47;1.90;;;7.80;99.90;;;;;;8275018;28;20223;-70
2023/10/09 04:21:36;;;;;;;13.87;7.17;;;7.80;99.90;;;;;;8288342;28;20195;-70
2023/10/09 04:25:45;;;;;;;39.77;15.73;;;7.80;99.90;;;;;;8289077;28;20523;-69
2023/10/09 04:29:49;;;;;;;35.63;13.53;;;7.90;99.90;;;;;;8275688;28;20176;-71
2023/10/09 04:34:21;;;;;;;29.63;10.57;;;7.90;99.90;;;;;;8259449;28;20167;-70
2023/10/09 04:39:15;;;;;;;14.50;6.60;;;7.90;99.90;;;;;;8257570;28;20184;-69
2023/10/09 04:43:22;;;;;;;14.50;6.53;;;7.90;99.90;;;;;;8243195;28;20191;-69
2023/10/09 04:47:25;;;;;;;19.80;9.07;;;7.90;99.90;;;;;;8255549;28;20179;-69
2023/10/09 04:51:36;;;;;;;5.97;3.27;;;7.90;99.90;;;;;;8267347;28;20198;-69
2023/10/09 04:55:44;;;;;;;10.87;5.80;;;7.90;99.90;;;;;;8287128;28;20196;-66
2023/10/09 04:59:51;;;;;;;6.20;3.50;;;7.80;99.90;;;;;;8323479;28;20285;-68
2023/10/09 05:04:03;;;;;;;3.07;2.70;;;7.80;99.90;;;;;;8307205;28;20179;-68
2023/10/09 05:08:32;;;;;;;6.47;2.80;;;7.80;99.90;;;;;;8270026;28;20194;-68
2023/10/09 05:12:33;;;;;;;5.67;3.27;;;7.80;99.90;;;;;;8278798;28;20187;-64
2023/10/09 05:16:37;;;;;;;4.87;3.03;;;7.80;99.90;;;;;;8260028;28;20203;-63
2023/10/09 05:21:05;;;;;;;4.63;3.03;;;7.80;99.90;;;;;;8250179;28;20187;-63
2023/10/09 05:25:16;;;;;;;6.03;3.00;;;7.80;99.90;;;;;;8268901;28;20257;-63
2023/10/09 05:33:37;;;;;;;5.43;2.70;;;7.80;99.90;;;;;;8279155;28;20210;-68
2023/10/09 05:37:43;;;;;;;6.70;3.30;;;7.80;99.90;;;;;;8272575;28;20215;-68
2023/10/09 05:42:09;;;;;;;6.80;3.10;;;7.80;99.90;;;;;;8257826;28;20195;-68
2023/10/09 05:46:09;;;;;;;6.07;2.60;;;7.90;99.90;;;;;;8272265;28;20933;-66
2023/10/09 06:07:40;;;;;;;6.33;3.73;;;8.00;99.90;;;;;;8274762;28;20460;-66
2023/10/09 06:21:07;;;;;;;15.47;6.97;;;8.00;99.90;;;;;;8271147;28;20197;-68
2023/10/09 06:25:09;;;;;;;10.30;6.03;;;8.00;99.90;;;;;;8269613;28;20289;-69
2023/10/09 06:29:14;;;;;;;9.20;5.53;;;8.00;99.90;;;;;;8256701;28;20187;-71
2023/10/09 06:33:29;;;;;;;11.60;5.63;;;8.10;99.90;;;;;;8243641;28;20202;-67
2023/10/09 06:41:45;;;;;;;7.93;5.13;;;8.10;99.90;;;;;;8269386;28;20201;-66
2023/10/09 06:45:54;;;;;;;6.93;3.80;;;8.10;99.90;;;;;;8279041;28;20188;-68
2023/10/09 06:54:37;;;;;;;8.77;3.40;;;8.30;99.90;;;;;;8241983;28;20230;-68
2023/10/09 06:58:47;;;;;;;4.13;2.33;;;8.30;99.90;;;;;;8254235;28;20646;-67
2023/10/09 07:02:48;;;;;;;28.30;14.40;;;8.30;99.90;;;;;;8273171;28;20188;-70
2023/10/09 07:06:51;;;;;;;19.63;10.60;;;8.40;99.90;;;;;;8253186;28;20253;-67
2023/10/09 07:11:21;;;;;;;14.90;9.17;;;8.40;99.90;;;;;;8275082;28;20198;-70
2023/10/09 07:16:23;;;;;;;7.20;5.60;;;8.50;99.90;;;;;;8269083;28;20206;-68
2023/10/09 07:23:49;;;;;;;7.77;4.07;;;8.50;99.90;;;;;;8277806;28;20179;-69
2023/10/09 07:27:51;;;;;;;10.90;3.87;;;8.40;99.90;;;;;;8259060;28;20197;-68
2023/10/09 07:32:12;;;;;;;7.33;4.97;;;8.40;99.90;;;;;;8270446;28;20188;-66
2023/10/09 07:36:29;;;;;;;11.97;5.30;;;8.30;99.90;;;;;;8272991;28;20270;-67
2023/10/09 07:40:54;;;;;;;7.07;4.10;;;8.30;99.90;;;;;;8268840;28;20214;-69
2023/10/09 07:44:57;;;;;;;48.03;22.60;;;8.30;99.90;;;;;;8273241;28;20412;-66
2023/10/09 07:49:12;;;;;;;13.03;6.57;;;8.40;99.90;;;;;;8256793;28;20195;-70
2023/10/09 07:53:17;;;;;;;11.20;5.97;;;8.50;99.90;;;;;;8252395;28;20183;-67
2023/10/09 07:57:28;;;;;;;4.07;3.03;;;8.60;99.90;;;;;;8271899;28;20218;-69
2023/10/09 08:01:35;;;;;;;4.60;3.23;;;8.70;99.90;;;;;;8273912;28;20199;-70
2023/10/09 08:05:44;;;;;;;4.60;3.13;;;8.70;99.90;;;;;;8275488;28;20231;-66
2023/10/09 08:09:48;;;;;;;2.50;2.10;;;8.80;99.90;;;;;;8257196;28;20637;-71
2023/10/09 08:13:56;;;;;;;3.90;2.27;;;8.90;99.90;;;;;;8280158;28;20191;-70
2023/10/09 08:18:09;;;;;;;2.30;1.80;;;9.10;99.90;;;;;;8259063;28;21085;-72
2023/10/09 08:26:29;;;;;;;2.17;1.60;;;9.40;99.90;;;;;;8272807;28;20210;-67
2023/10/09 08:30:40;;;;;;;3.50;2.03;;;9.40;55.40;;;;;;8269077;28;20219;-70
2023/10/09 08:34:48;;;;;;;3.03;1.77;;;9.30;19.60;;;;;;8278204;28;20243;-70
2023/10/09 08:38:52;;;;;;;5.17;3.70;;;9.20;1.00;;;;;;8256500;28;20223;-65
2023/10/09 08:42:57;;;;;;;2.93;1.83;;;9.10;48.20;;;;;;8257600;28;20180;-69
2023/10/09 08:46:58;;;;;;;2.73;1.90;;;9.10;34.90;;;;;;8256604;28;20190;-70
2023/10/09 08:51:06;;;;;;;6.33;2.77;;;9.20;85.70;;;;;;8274954;28;20205;-70
2023/10/09 08:55:08;;;;;;;4.77;3.47;;;9.20;75.70;;;;;;8275445;28;20208;-66
2023/10/09 08:59:10;;;;;;;3.37;2.37;;;9.20;63.60;;;;;;8274743;28;20200;-73
2023/10/09 09:03:16;;;;;;;2.83;2.20;;;9.20;1.00;;;;;;8255663;28;20357;-73
2023/10/09 09:07:31;;;;;;;3.57;2.83;;;9.40;1.00;;;;;;8255006;28;20191;-74
2023/10/09 09:11:49;;;;;;;5.30;2.97;;;9.50;99.90;;;;;;8269060;28;20196;-70
2023/10/09 09:15:53;;;;;;;5.07;2.57;;;9.60;99.90;;;;;;8267666;28;20282;-72
2023/10/09 09:19:58;;;;;;;7.00;4.37;;;9.60;99.90;;;;;;8249365;28;20188;-72
2023/10/09 09:24:06;;;;;;;5.27;3.03;;;9.50;99.90;;;;;;8249424;28;20202;-72
2023/10/09 09:28:12;;;;;;;4.80;3.70;;;9.50;99.90;;;;;;8253250;28;20179;-72
2023/10/09 09:32:19;;;;;;;4.13;2.33;;;9.70;99.90;;;;;;8253334;28;20199;-72
2023/10/09 09:36:23;;;;;;;3.30;2.43;;;9.90;99.90;;;;;;8271330;28;20276;-70
2023/10/09 09:40:41;;;;;;;2.97;2.37;;;10.10;86.50;;;;;;8253983;28;20281;-73
2023/10/09 09:44:44;;;;;;;3.00;2.57;;;10.10;8.50;;;;;;8254486;28;20205;-71
2023/10/09 09:48:47;;;;;;;6.67;2.90;;;10.10;19.40;;;;;;8252939;28;20192;-74
2023/10/09 09:52:55;;;;;;;4.67;2.73;;;10.00;1.00;;;;;;8249670;28;20190;-73
2023/10/09 09:56:58;;;;;;;6.00;3.03;;;10.00;1.00;;;;;;8272763;28;20246;-73
2023/10/09 10:01:56;;;;;;;4.57;4.10;;;10.00;1.00;;;;;;8259442;28;20281;-73
2023/10/09 10:05:29;;;;;;;8.33;4.83;;;10.00;1.00;;;;;;8266922;28;20228;-72
2023/10/09 10:09:44;;;;;;;4.87;3.40;;;10.10;1.00;;;;;;8274720;28;20181;-71
2023/10/09 10:13:48;;;;;;;7.73;5.10;;;10.00;1.00;;;;;;8253447;28;20205;-67
2023/10/09 10:18:03;;;;;;;4.40;3.27;;;10.10;1.00;;;;;;8270558;28;20208;-69
2023/10/09 10:22:27;;;;;;;5.00;2.60;;;10.20;1.00;;;;;;8254062;28;20182;-68
2023/10/09 10:26:30;;;;;;;3.53;2.60;;;10.30;1.00;;;;;;8253710;28;20193;-67
2023/10/09 10:30:33;;;;;;;3.23;2.93;;;10.30;1.00;;;;;;8255559;28;20222;-71
2023/10/09 10:34:55;;;;;;;2.93;2.20;;;10.50;99.90;;;;;;8276344;28;20217;-69
2023/10/09 10:39:11;;;;;;;2.53;2.33;;;10.50;99.90;;;;;;8251159;28;20182;-68
2023/10/09 10:47:47;;;;;;;6.13;3.67;;;10.50;99.90;;;;;;8272318;28;20217;-70
2023/10/09 10:51:49;;;;;;;9.00;5.27;;;10.50;99.90;;;;;;8256160;28;20195;-66
2023/10/09 11:01:11;;;;;;;7.77;4.77;;;10.60;99.90;;;;;;8267369;28;20317;-68
2023/10/09 11:04:41;;;;;;;16.40;10.17;;;10.50;99.90;;;;;;8271342;28;20215;-68
2023/10/09 11:08:56;;;;;;;9.10;6.87;;;10.30;99.90;;;;;;8250930;28;20221;-69
2023/10/09 11:17:25;;;;;;;5.70;3.57;;;10.20;1.00;;;;;;8266487;28;20610;-67
2023/10/09 11:21:31;;;;;;;5.67;3.43;;;10.20;1.00;;;;;;8266997;28;20186;-68
2023/10/09 11:25:33;;;;;;;5.90;4.37;;;10.20;1.00;;;;;;8258133;28;20244;-69
2023/10/09 11:33:51;;;;;;;6.17;3.50;;;10.30;10.20;;;;;;8273767;28;20205;-72
2023/10/09 11:37:56;;;;;;;6.60;4.30;;;10.40;1.00;;;;;;8256368;28;20219;-72
2023/10/09 11:42:04;;;;;;;25.37;16.73;;;10.40;1.00;;;;;;8272585;28;20192;-70
2023/10/09 11:46:12;;;;;;;20.67;10.50;;;10.50;1.00;;;;;;8254825;28;20194;-70
2023/10/09 11:50:13;;;;;;;12.67;6.07;;;10.50;1.00;;;;;;8251478;28;20198;-69
2023/10/09 11:54:33;;;;;;;6.90;4.20;;;10.60;1.00;;;;;;8256039;28;20191;-71
2023/10/09 11:58:33;;;;;;;3.97;3.37;;;10.60;1.00;;;;;;8269613;28;20204;-71
2023/10/09 12:02:43;;;;;;;5.40;2.83;;;10.70;1.00;;;;;;8273524;28;20220;-70
2023/10/09 12:06:44;;;;;;;7.17;3.63;;;10.80;1.00;;;;;;8274364;28;20229;-70
2023/10/09 12:10:48;;;;;;;3.93;2.97;;;11.00;1.00;;;;;;8258859;28;20230;-70
2023/10/09 12:14:51;;;;;;;5.43;4.10;;;11.10;99.90;;;;;;8270793;28;20215;-69
2023/10/09 12:18:59;;;;;;;5.93;3.27;;;11.10;99.90;;;;;;8250947;28;20195;-69
2023/10/09 12:23:04;;;;;;;3.40;2.70;;;11.00;99.90;;;;;;8254780;28;20277;-69
2023/10/09 12:27:10;;;;;;;5.37;2.70;;;11.00;99.90;;;;;;8252724;28;20235;-70
2023/10/09 12:31:19;;;;;;;4.90;2.93;;;11.20;99.90;;;;;;8272857;28;20213;-72
2023/10/09 12:35:21;;;;;;;3.17;2.47;;;11.10;99.90;;;;;;8251439;28;20214;-73
2023/10/09 12:39:22;;;;;;;3.20;1.93;;;11.20;99.90;;;;;;8257458;28;20560;-70
2023/10/09 12:43:23;;;;;;;3.03;1.97;;;11.40;99.90;;;;;;8253543;28;21031;-71
2023/10/09 12:47:26;;;;;;;3.73;2.40;;;11.60;99.90;;;;;;8268895;28;20192;-71
2023/10/09 12:51:29;;;;;;;3.10;2.40;;;11.70;99.90;;;;;;8272161;28;20582;-72
2023/10/09 12:55:34;;;;;;;3.00;2.17;;;11.70;99.90;;;;;;8271631;28;20214;-71
2023/10/09 12:59:36;;;;;;;2.93;2.30;;;11.70;99.90;;;;;;8256745;28;20725;-70
2023/10/09 13:03:40;;;;;;;5.30;2.97;;;11.70;99.90;;;;;;8256729;28;20180;-70
2023/10/09 13:07:41;;;;;;;3.80;2.27;;;11.80;99.90;;;;;;8271835;28;20195;-71
2023/10/09 13:11:43;;;;;;;4.27;2.23;;;11.80;99.90;;;;;;8271406;28;20272;-70
2023/10/09 13:15:45;;;;;;;3.47;2.53;;;11.90;99.90;;;;;;8270063;28;20282;-69
2023/10/09 13:19:46;;;;;;;4.30;2.50;;;11.90;99.90;;;;;;8271055;28;20175;-70
2023/10/09 13:23:47;;;;;;;6.40;3.33;;;12.00;99.90;;;;;;8272573;28;20186;-70
2023/10/09 13:27:50;;;;;;;7.63;3.80;;;12.00;99.90;;;;;;8268135;28;20484;-68
2023/10/09 13:31:57;;;;;;;8.50;4.43;;;12.00;99.90;;;;;;8270508;28;20191;-70
2023/10/09 13:35:59;;;;;;;8.03;4.77;;;11.90;99.90;;;;;;8253493;28;20302;-69
2023/10/09 13:40:08;;;;;;;6.87;3.77;;;11.70;99.90;;;;;;8251223;28;20183;-69
2023/10/09 13:44:09;;;;;;;3.83;2.93;;;11.70;99.90;;;;;;8253333;28;20198;-70
2023/10/09 13:48:12;;;;;;;4.83;3.70;;;11.60;99.90;;;;;;8251845;28;20205;-70
2023/10/09 13:52:17;;;;;;;4.03;2.67;;;11.70;99.90;;;;;;8253115;28;20222;-71
2023/10/09 13:56:20;;;;;;;3.57;2.00;;;11.90;99.90;;;;;;8255926;28;20233;-71
2023/10/09 14:00:33;;;;;;;4.60;2.03;;;11.90;99.90;;;;;;8253149;28;20222;-70
2023/10/09 14:04:34;;;;;;;2.60;2.00;;;11.70;99.90;;;;;;8248827;28;20222;-70
2023/10/09 14:08:41;;;;;;;5.23;2.67;;;11.80;99.90;;;;;;8268851;28;20194;-72
2023/10/09 14:12:44;;;;;;;3.03;2.40;;;11.70;99.90;;;;;;8270954;28;20289;-71
2023/10/09 14:16:46;;;;;;;3.57;2.23;;;11.60;99.90;;;;;;8269770;28;20207;-72
2023/10/09 14:20:47;;;;;;;2.97;2.20;;;11.40;99.90;;;;;;8253704;28;20190;-71
2023/10/09 14:24:55;;;;;;;2.97;1.90;;;11.20;99.90;;;;;;8268395;28;20203;-70
2023/10/09 14:28:59;;;;;;;2.60;2.07;;;11.00;99.90;;;;;;8268821;28;20184;-72
2023/10/09 14:33:01;;;;;;;3.50;2.37;;;10.80;99.90;;;;;;8265847;28;20278;-71
2023/10/09 14:37:03;;;;;;;3.03;2.40;;;10.70;99.90;;;;;;8252067;28;20230;-69
2023/10/09 14:41:07;;;;;;;5.67;3.90;;;10.70;99.90;;;;;;8252026;28;20217;-71
2023/10/09 14:45:09;;;;;;;2.70;2.10;;;10.70;99.90;;;;;;8265982;28;20477;-71
2023/10/09 14:49:13;;;;;;;3.67;3.00;;;10.60;99.90;;;;;;8251028;28;20218;-71
2023/10/09 14:53:15;;;;;;;6.03;3.73;;;10.40;99.90;;;;;;8268244;28;20194;-72
2023/10/09 14:57:16;;;;;;;9.23;4.80;;;10.30;99.90;;;;;;8250505;28;20217;-71
2023/10/09 15:01:19;;;;;;;19.87;12.40;;;10.20;1.00;;;;;;8267716;28;20209;-70
2023/10/09 15:05:22;;;;;;;21.53;10.17;;;10.10;37.90;;;;;;8268249;28;20269;-70
2023/10/09 15:09:28;;;;;;;98.60;42.00;;;10.20;33.00;;;;;;8268268;28;20184;-70
2023/10/09 15:13:30;;;;;;;26.80;12.63;;;10.30;1.00;;;;;;8251561;28;20240;-72
2023/10/09 15:17:31;;;;;;;20.70;10.67;;;10.40;1.00;;;;;;8266326;28;20206;-71
2023/10/09 15:21:33;;;;;;;12.90;7.30;;;10.40;1.00;;;;;;8269652;28;20213;-73
2023/10/09 15:25:34;;;;;;;6.83;5.20;;;10.50;1.00;;;;;;8269460;28;20199;-71
2023/10/09 15:29:37;;;;;;;6.97;5.30;;;10.50;1.00;;;;;;8267421;28;20268;-72
2023/10/09 15:33:39;;;;;;;15.40;8.07;;;10.50;1.00;;;;;;8253130;28;20192;-68
2023/10/09 15:37:42;;;;;;;14.40;8.77;;;10.40;1.00;;;;;;8255490;28;20202;-69
2023/10/09 15:41:43;;;;;;;7.03;5.23;;;10.40;1.00;;;;;;8277416;28;20274;-72
2023/10/09 15:45:47;;;;;;;5.53;3.87;;;10.40;8.50;;;;;;8246220;28;20225;-72
2023/10/09 15:49:52;;;;;;;3.80;3.50;;;10.40;69.40;;;;;;8250472;28;20364;-73
2023/10/09 15:54:01;;;;;;;5.60;3.30;;;10.40;99.90;;;;;;8271970;28;20194;-68
2023/10/09 15:58:02;;;;;;;4.33;3.57;;;10.30;99.90;;;;;;8252862;28;20225;-67
2023/10/09 16:02:03;;;;;;;5.37;3.47;;;10.30;99.90;;;;;;8272004;28;20297;-68
2023/10/09 16:06:05;;;;;;;4.03;3.00;;;10.20;99.90;;;;;;8275516;28;20205;-69
2023/10/09 16:10:08;;;;;;;4.00;2.70;;;10.10;99.90;;;;;;8262604;28;20286;-71
2023/10/09 16:14:10;;;;;;;4.20;3.17;;;10.00;1.00;;;;;;8260872;28;20658;-70
2023/10/09 16:18:12;;;;;;;3.73;2.30;;;10.00;94.50;;;;;;8275797;28;20205;-68
2023/10/09 16:22:13;;;;;;;4.10;2.40;;;9.90;83.20;;;;;;8263345;28;20190;-67
2023/10/09 16:26:17;;;;;;;2.60;2.20;;;9.90;99.90;;;;;;8258744;28;20206;-69
2023/10/09 16:30:20;;;;;;;8.07;3.60;;;9.80;99.90;;;;;;8279685;28;20214;-67
2023/10/09 16:34:25;;;;;;;6.00;3.13;;;9.80;99.90;;;;;;8261619;28;20190;-67
2023/10/09 16:38:26;;;;;;;35.33;13.10;;;9.80;99.90;;;;;;8256479;28;20580;-65
2023/10/09 16:42:27;;;;;;;62.47;22.23;;;9.80;99.90;;;;;;8272665;28;20182;-64
2023/10/09 16:46:28;;;;;;;44.50;19.80;;;9.80;99.90;;;;;;8269625;28;20204;-64
2023/10/09 16:50:29;;;;;;;98.90;49.33;;;9.80;99.90;;;;;;8272174;28;20201;-63
2023/10/09 16:54:30;;;;;;;94.33;49.27;;;9.80;99.90;;;;;;8258417;28;20280;-63
2023/10/09 16:58:32;;;;;;;34.37;21.50;;;9.80;99.90;;;;;;8273529;28;20542;-64
2023/10/09 17:02:38;;;;;;;40.70;24.90;;;9.70;99.90;;;;;;8261487;28;20200;-64
2023/10/09 17:06:39;;;;;;;45.77;28.57;;;9.70;99.90;;;;;;8273118;28;20191;-64
2023/10/09 17:10:45;;;;;;;66.83;32.57;;;9.70;1.00;;;;;;8254483;28;20186;-72
2023/10/09 17:14:46;;;;;;;252.70;87.33;;;9.70;1.00;;;;;;8258329;28;20218;-70
2023/10/09 17:18:48;;;;;;;98.73;58.23;;;9.70;59.00;;;;;;8257069;28;20204;-68
2023/10/09 17:22:49;;;;;;;89.07;56.63;;;9.70;91.50;;;;;;8254936;28;20258;-63
2023/10/09 17:26:50;;;;;;;66.43;50.60;;;9.70;99.90;;;;;;8272300;28;20200;-64
2023/10/09 17:31:00;;;;;;;48.13;38.03;;;9.60;1.00;;;;;;8267518;28;20215;-64
2023/10/09 17:35:02;;;;;;;20.33;17.67;;;9.60;99.90;;;;;;8253649;28;20215;-64
2023/10/09 17:39:06;;;;;;;13.03;10.43;;;9.60;99.90;;;;;;8254037;28;20189;-65
2023/10/09 17:43:07;;;;;;;29.60;18.00;;;9.60;1.00;;;;;;8272474;28;20211;-64
2023/10/09 17:47:08;;;;;;;29.03;18.80;;;9.60;1.00;;;;;;8252296;28;20207;-62
2023/10/09 17:51:08;;;;;;;26.57;16.97;;;9.60;1.00;;;;;;8270969;28;20218;-64
2023/10/09 17:55:12;;;;;;;15.90;10.00;;;9.60;1.00;;;;;;8272100;28;20204;-63
2023/10/09 17:59:13;;;;;;;10.90;8.27;;;9.60;99.90;;;;;;8273468;28;20238;-67
2023/10/09 18:03:15;;;;;;;7.60;5.20;;;9.50;99.90;;;;;;8270409;28;20193;-63
2023/10/09 18:07:18;;;;;;;5.60;4.07;;;9.50;1.00;;;;;;8271698;28;20553;-66
2023/10/09 18:11:19;;;;;;;4.37;3.70;;;9.50;1.00;;;;;;8253402;28;20183;-63
2023/10/09 18:15:20;;;;;;;5.23;4.57;;;9.50;99.90;;;;;;8253766;28;20250;-62
2023/10/09 18:19:21;;;;;;;46.77;25.13;;;9.50;99.90;;;;;;8251413;28;20275;-63
2023/10/09 18:23:22;;;;;;;26.37;16.80;;;9.50;1.00;;;;;;8257259;28;20187;-71
2023/10/09 18:27:29;;;;;;;26.20;16.33;;;9.50;99.90;;;;;;8274266;28;20201;-70
2023/10/09 18:31:30;;;;;;;11.10;8.23;;;9.40;18.70;;;;;;8254226;28;20180;-64
2023/10/09 18:35:31;;;;;;;6.93;5.83;;;9.40;82.20;;;;;;8253937;28;20251;-65
2023/10/09 18:39:31;;;;;;;7.20;4.67;;;9.40;53.60;;;;;;8252774;28;20268;-66
2023/10/09 18:43:34;;;;;;;4.83;4.13;;;9.40;1.00;;;;;;8272871;28;20377;-66
2023/10/09 18:47:39;;;;;;;5.17;3.77;;;9.30;62.10;;;;;;8268404;28;20193;-64
2023/10/09 18:51:41;;;;;;;5.20;4.23;;;9.30;99.90;;;;;;8266166;28;20192;-65
2023/10/09 18:55:42;;;;;;;5.80;4.53;;;9.30;1.00;;;;;;8253152;28;20258;-64
2023/10/09 18:59:43;;;;;;;6.73;5.03;;;9.30;1.00;;;;;;8267804;28;20216;-65
2023/10/09 19:03:48;;;;;;;13.10;9.60;;;9.20;99.90;;;;;;8271549;28;20191;-65
2023/10/09 19:07:48;;;;;;;12.20;8.07;;;9.30;99.90;;;;;;8267185;28;20193;-64
2023/10/09 19:11:50;;;;;;;12.33;8.60;;;9.30;99.90;;;;;;8256126;28;20297;-63
2023/10/09 19:15:51;;;;;;;7.80;5.40;;;9.30;99.90;;;;;;8269145;28;20216;-66
2023/10/09 19:19:52;;;;;;;5.87;4.90;;;9.20;99.90;;;;;;8268432;28;20233;-64
2023/10/09 19:23:55;;;;;;;5.53;4.37;;;9.20;1.00;;;;;;8269989;28;20231;-63
2023/10/09 19:27:57;;;;;;;6.57;4.77;;;9.20;99.90;;;;;;8253891;28;20577;-64
2023/10/09 19:31:58;;;;;;;5.60;5.00;;;9.20;99.90;;;;;;8269497;28;20458;-66
2023/10/09 19:36:03;;;;;;;6.27;5.37;;;9.20;1.00;;;;;;8267137;28;20249;-64
2023/10/09 19:40:10;;;;;;;10.03;6.60;;;9.20;1.00;;;;;;8268629;28;20196;-64
2023/10/09 19:44:11;;;;;;;15.30;10.80;;;9.20;1.00;;;;;;8254056;28;20235;-64
2023/10/09 19:48:13;;;;;;;36.40;22.03;;;9.20;1.00;;;;;;8255164;28;20322;-64
2023/10/09 19:52:14;;;;;;;42.20;27.10;;;9.20;99.90;;;;;;8274084;28;20194;-64
2023/10/09 19:56:18;;;;;;;26.73;16.83;;;9.20;99.90;;;;;;8274979;28;20409;-64
2023/10/09 20:00:22;;;;;;;20.73;13.67;;;9.20;99.90;;;;;;8273330;28;20192;-65
2023/10/09 20:04:25;;;;;;;28.40;19.73;;;9.20;99.90;;;;;;8272805;28;20189;-65
2023/10/09 20:08:26;;;;;;;20.90;12.53;;;9.20;99.90;;;;;;8272827;28;20280;-64
2023/10/09 20:12:27;;;;;;;20.57;13.10;;;9.20;1.00;;;;;;8256878;28;20202;-63
2023/10/09 20:16:27;;;;;;;21.10;13.90;;;9.20;99.90;;;;;;8274097;28;20254;-64
2023/10/09 20:20:28;;;;;;;20.63;13.93;;;9.10;99.90;;;;;;8250543;28;20306;-65
2023/10/09 20:24:30;;;;;;;25.40;15.17;;;9.10;1.00;;;;;;8273580;28;20199;-63
2023/10/09 20:28:31;;;;;;;21.63;13.93;;;9.10;99.90;;;;;;8252614;28;20255;-64
2023/10/09 20:32:32;;;;;;;19.67;13.43;;;9.00;99.90;;;;;;8275006;28;20175;-63
2023/10/09 20:36:40;;;;;;;25.80;14.73;;;9.00;99.90;;;;;;8268852;28;20218;-65
2023/10/09 20:40:43;;;;;;;24.23;15.07;;;8.90;99.90;;;;;;8271718;28;20184;-64
2023/10/09 20:44:44;;;;;;;22.80;14.87;;;8.90;99.90;;;;;;8273867;28;20188;-63
2023/10/09 20:48:45;;;;;;;26.60;14.70;;;8.90;99.90;;;;;;8253255;28;20194;-65
2023/10/09 20:52:46;;;;;;;21.13;12.97;;;8.90;99.90;;;;;;8250947;28;20199;-66
2023/10/09 20:56:48;;;;;;;24.20;14.73;;;8.80;99.90;;;;;;8270330;28;20215;-65
2023/10/09 21:00:51;;;;;;;23.63;14.13;;;8.80;99.90;;;;;;8276639;28;20298;-70
2023/10/09 21:04:56;;;;;;;24.93;14.80;;;8.80;99.90;;;;;;8276103;28;20207;-69
2023/10/09 21:08:58;;;;;;;21.53;12.30;;;8.80;99.90;;;;;;8278340;28;20184;-71
2023/10/09 21:13:00;;;;;;;22.27;13.10;;;8.80;99.90;;;;;;8261782;28;20206;-68
2023/10/09 21:17:02;;;;;;;21.63;13.10;;;8.70;99.90;;;;;;8281613;28;20246;-69
2023/10/09 21:21:08;;;;;;;21.27;12.40;;;8.70;99.90;;;;;;8256699;28;20434;-71
2023/10/09 21:25:10;;;;;;;22.57;13.00;;;8.70;99.90;;;;;;8265078;28;20199;-70
2023/10/09 21:29:12;;;;;;;19.53;11.97;;;8.70;99.90;;;;;;8258392;28;20285;-66
2023/10/09 21:33:12;;;;;;;26.00;12.53;;;8.70;99.90;;;;;;8276722;28;20199;-71
2023/10/09 21:37:13;;;;;;;23.33;15.27;;;8.70;99.90;;;;;;8279714;28;20223;-69
2023/10/09 21:41:21;;;;;;;24.63;14.47;;;8.70;99.90;;;;;;8276940;28;20187;-66
2023/10/09 21:45:23;;;;;;;27.00;15.97;;;8.70;99.90;;;;;;8281252;28;20491;-69
2023/10/09 21:49:23;;;;;;;29.83;17.37;;;8.70;99.90;;;;;;8281593;28;20222;-69
2023/10/09 21:53:27;;;;;;;30.70;18.17;;;8.70;99.90;;;;;;8281817;28;20195;-69
2023/10/09 21:57:29;;;;;;;28.90;17.37;;;8.70;99.90;;;;;;8268565;28;20221;-68
2023/10/09 22:01:30;;;;;;;29.80;17.57;;;8.70;99.90;;;;;;8273213;28;20212;-63
2023/10/09 22:05:32;;;;;;;31.80;18.27;;;8.70;99.90;;;;;;8245448;28;20222;-63
2023/10/09 22:09:33;;;;;;;33.40;19.80;;;8.80;99.90;;;;;;8270271;28;20430;-65
2023/10/09 22:13:34;;;;;;;31.00;19.17;;;8.80;99.90;;;;;;8254138;28;20281;-61
2023/10/09 22:17:35;;;;;;;32.53;19.07;;;8.80;99.90;;;;;;8267791;28;20251;-62
2023/10/09 22:21:38;;;;;;;28.70;18.50;;;8.80;99.90;;;;;;8272078;28;20190;-70
2023/10/09 22:25:40;;;;;;;34.63;20.10;;;8.80;99.90;;;;;;8257932;28;20222;-69
2023/10/09 22:29:41;;;;;;;32.83;19.60;;;8.80;99.90;;;;;;8274928;28;20183;-66